Time;durP1;ratioP1;P1;durP2;ratioP2;P2;SDS_P1;SDS_P2;PMS_P1;PMS_P2;Temp;Humidity;BMP_temperature;BMP_pressure;BME280_temperature;BME280_humidity;BME280_pressure;Samples;Min_cycle;Max_cycle;Signal;HPM_P1;HPM_P2
2022/04/01 00:01:22;;;;;;;6.65;2.88;;;0.30;99.90;;;;;;5021815;28;20037;-66
2022/04/01 00:03:48;;;;;;;4.15;1.75;;;0.30;99.90;;;;;;5023973;28;20469;-67
2022/04/01 00:06:14;;;;;;;6.68;1.98;;;0.30;99.90;;;;;;5023444;28;20038;-66
2022/04/01 00:08:39;;;;;;;4.78;2.53;;;0.30;99.90;;;;;;5022234;28;20041;-66
2022/04/01 00:11:05;;;;;;;3.53;1.63;;;0.30;99.90;;;;;;5023041;28;20038;-65
2022/04/01 00:13:31;;;;;;;6.07;2.63;;;0.30;99.90;;;;;;5023332;28;20433;-65
2022/04/01 00:15:56;;;;;;;7.07;2.47;;;0.30;99.90;;;;;;5011271;28;20045;-66
2022/04/01 00:18:22;;;;;;;4.88;2.35;;;0.30;99.90;;;;;;5005565;28;20372;-66
2022/04/01 00:20:48;;;;;;;2.88;1.92;;;0.30;99.90;;;;;;5024356;28;20045;-65
2022/04/01 00:23:14;;;;;;;3.72;2.08;;;0.30;99.90;;;;;;5025817;28;20046;-66
2022/04/01 00:25:42;;;;;;;4.15;1.67;;;0.30;99.90;;;;;;5007206;28;20100;-66
2022/04/01 00:28:07;;;;;;;3.35;2.20;;;0.30;99.90;;;;;;5006187;28;20049;-66
2022/04/01 00:30:38;;;;;;;3.63;2.00;;;0.30;99.90;;;;;;5022787;28;20053;-66
2022/04/01 00:33:08;;;;;;;3.22;1.25;;;0.30;99.90;;;;;;5004271;28;20057;-66
2022/04/01 00:35:35;;;;;;;4.18;1.83;;;0.30;99.90;;;;;;5024990;28;20457;-67
2022/04/01 00:38:01;;;;;;;3.53;2.28;;;0.30;99.90;;;;;;5023502;28;20042;-65
2022/04/01 00:40:26;;;;;;;3.15;2.22;;;0.30;99.90;;;;;;5023555;28;20054;-67
2022/04/01 00:42:52;;;;;;;3.70;2.03;;;0.30;99.90;;;;;;5005647;28;20037;-66
2022/04/01 00:45:18;;;;;;;4.65;1.75;;;0.30;99.90;;;;;;5024227;28;20188;-65
2022/04/01 00:47:43;;;;;;;3.03;1.67;;;0.30;99.90;;;;;;5023434;28;20034;-65
2022/04/01 00:50:09;;;;;;;3.72;1.80;;;0.30;99.90;;;;;;5017867;28;20433;-66
2022/04/01 00:52:36;;;;;;;3.40;1.63;;;0.30;99.90;;;;;;5020570;28;20483;-65
2022/04/01 00:55:05;;;;;;;4.38;1.83;;;0.30;99.90;;;;;;4997096;28;20077;-66
2022/04/01 00:57:31;;;;;;;8.75;2.72;;;0.30;99.90;;;;;;5001669;28;20092;-66
2022/04/01 00:59:58;;;;;;;2.75;1.23;;;0.30;99.90;;;;;;5017287;28;20131;-66
2022/04/01 01:02:23;;;;;;;5.90;1.33;;;0.30;99.90;;;;;;5010110;28;20063;-66
2022/04/01 01:04:50;;;;;;;3.38;1.50;;;0.30;99.90;;;;;;5018692;28;20033;-65
2022/04/01 01:07:16;;;;;;;3.17;1.58;;;0.30;99.90;;;;;;5023955;28;20079;-66
2022/04/01 01:09:43;;;;;;;2.83;1.48;;;0.30;99.90;;;;;;5024285;28;20037;-66
2022/04/01 01:12:10;;;;;;;2.60;1.80;;;0.30;99.90;;;;;;5005809;28;20050;-66
2022/04/01 01:14:36;;;;;;;4.30;1.80;;;0.30;99.90;;;;;;5004154;28;20447;-66
2022/04/01 01:17:10;;;;;;;7.68;1.50;;;0.40;99.90;;;;;;5023023;28;20037;-66
2022/04/01 01:19:36;;;;;;;3.80;1.48;;;0.30;99.90;;;;;;5023006;28;20046;-66
2022/04/01 01:22:02;;;;;;;3.42;1.67;;;0.30;99.90;;;;;;5026136;28;20069;-66
2022/04/01 01:24:33;;;;;;;4.38;1.17;;;0.40;99.90;;;;;;5024429;28;20050;-66
2022/04/01 01:26:59;;;;;;;2.45;1.23;;;0.40;99.90;;;;;;5024633;28;20041;-67
2022/04/01 01:29:30;;;;;;;2.70;1.58;;;0.40;99.90;;;;;;4995276;28;20033;-66
2022/04/01 01:32:00;;;;;;;2.53;1.00;;;0.50;99.90;;;;;;5021776;28;20151;-66
2022/04/01 01:34:27;;;;;;;1.92;1.25;;;0.50;99.90;;;;;;5009196;28;20033;-66
2022/04/01 01:36:53;;;;;;;2.20;1.15;;;0.60;99.90;;;;;;5001408;28;20129;-67
2022/04/01 01:39:20;;;;;;;4.03;1.40;;;0.60;99.90;;;;;;5006854;28;20058;-66
2022/04/01 01:41:47;;;;;;;2.55;1.60;;;0.60;99.90;;;;;;4999086;28;20058;-66
2022/04/01 01:44:15;;;;;;;3.25;1.50;;;0.60;99.90;;;;;;5005092;28;20067;-66
2022/04/01 01:46:41;;;;;;;3.85;1.60;;;0.60;99.90;;;;;;4995096;28;20046;-66
2022/04/01 01:49:07;;;;;;;3.65;1.95;;;0.60;99.90;;;;;;5010556;28;20060;-66
2022/04/01 01:57:02;;;;;;;3.30;1.80;;;0.60;99.90;;;;;;4994959;28;20570;-67
2022/04/01 01:59:27;;;;;;;1.88;1.13;;;0.70;99.90;;;;;;5007877;28;20057;-66
2022/04/01 02:01:53;;;;;;;3.13;1.58;;;0.70;99.90;;;;;;4998260;28;20046;-66
2022/04/01 02:04:22;;;;;;;5.07;1.70;;;0.70;99.90;;;;;;5003179;28;20446;-66
2022/04/01 02:06:48;;;;;;;3.17;1.70;;;0.70;99.90;;;;;;5005062;28;20100;-65
2022/04/01 02:09:15;;;;;;;3.30;1.42;;;0.70;99.90;;;;;;5002622;28;20099;-65
2022/04/01 02:11:41;;;;;;;2.35;1.50;;;0.70;99.90;;;;;;5000686;28;20130;-66
2022/04/01 02:14:07;;;;;;;2.08;1.15;;;0.70;99.90;;;;;;5001687;28;20598;-65
2022/04/01 02:16:33;;;;;;;3.20;1.20;;;0.70;99.90;;;;;;5000589;28;20492;-65
2022/04/01 02:18:59;;;;;;;4.30;1.40;;;0.70;99.90;;;;;;5002504;28;20535;-66
2022/04/01 02:21:27;;;;;;;3.88;1.60;;;0.70;99.90;;;;;;5003443;28;20042;-66
2022/04/01 02:23:52;;;;;;;1.85;1.20;;;0.80;99.90;;;;;;5001788;28;20129;-66
2022/04/01 02:26:18;;;;;;;3.70;1.83;;;0.80;99.90;;;;;;4995094;28;20157;-66
2022/04/01 02:28:44;;;;;;;4.10;2.15;;;0.80;99.90;;;;;;5003113;28;20388;-66
2022/04/01 02:31:11;;;;;;;2.50;1.50;;;0.70;99.90;;;;;;5000609;28;20037;-67
2022/04/01 02:33:37;;;;;;;2.22;1.50;;;0.70;99.90;;;;;;5003266;28;20034;-68
2022/04/01 02:36:09;;;;;;;3.03;1.60;;;0.70;99.90;;;;;;4982950;28;20069;-67
2022/04/01 02:38:34;;;;;;;3.30;1.88;;;0.70;99.90;;;;;;5004104;28;20073;-65
2022/04/01 02:41:00;;;;;;;3.72;2.10;;;0.70;99.90;;;;;;5021764;28;20097;-66
2022/04/01 02:43:26;;;;;;;2.35;1.60;;;0.60;99.90;;;;;;4999791;28;20437;-66
2022/04/01 02:45:52;;;;;;;5.22;1.90;;;0.60;99.90;;;;;;5021311;28;20048;-66
2022/04/01 02:48:19;;;;;;;3.83;2.30;;;0.60;99.90;;;;;;5019804;28;20045;-66
2022/04/01 02:50:47;;;;;;;5.25;2.10;;;0.50;99.90;;;;;;5019722;28;20047;-66
2022/04/01 02:53:14;;;;;;;4.15;2.10;;;0.50;99.90;;;;;;5021502;28;20486;-67
2022/04/01 02:55:40;;;;;;;3.08;1.70;;;0.50;99.90;;;;;;5022950;28;20029;-66
2022/04/01 02:58:06;;;;;;;3.60;1.75;;;0.50;99.90;;;;;;5024742;28;20048;-66
2022/04/01 03:00:33;;;;;;;3.90;1.90;;;0.40;99.90;;;;;;5021123;28;20044;-66
2022/04/01 03:02:59;;;;;;;2.45;1.38;;;0.50;99.90;;;;;;5021529;28;20046;-66
2022/04/01 03:05:24;;;;;;;6.20;2.10;;;0.50;99.90;;;;;;5004900;28;20625;-67
2022/04/01 03:07:50;;;;;;;2.95;1.70;;;0.50;99.90;;;;;;5006940;28;20052;-66
2022/04/01 03:10:17;;;;;;;4.57;1.55;;;0.50;99.90;;;;;;5024149;28;20045;-66
2022/04/01 03:12:43;;;;;;;3.85;1.75;;;0.50;99.90;;;;;;4997932;28;20493;-66
2022/04/01 03:15:09;;;;;;;2.90;1.52;;;0.50;99.90;;;;;;5022106;28;20046;-67
2022/04/01 03:17:34;;;;;;;3.13;1.50;;;0.50;99.90;;;;;;5005263;28;20042;-67
2022/04/01 03:20:01;;;;;;;3.95;1.40;;;0.50;99.90;;;;;;5010964;28;20640;-66
2022/04/01 03:22:27;;;;;;;4.18;1.50;;;0.60;99.90;;;;;;5008411;28;20042;-66
2022/04/01 03:24:52;;;;;;;3.25;1.45;;;0.60;99.90;;;;;;5026967;28;20457;-66
2022/04/01 03:27:18;;;;;;;2.30;1.42;;;0.60;99.90;;;;;;5026458;28;20104;-67
2022/04/01 03:29:44;;;;;;;4.32;1.85;;;0.70;99.90;;;;;;5010641;28;20473;-66
2022/04/01 03:32:10;;;;;;;3.40;1.42;;;0.70;99.90;;;;;;5025899;28;20414;-66
2022/04/01 03:34:37;;;;;;;4.88;1.13;;;0.80;99.90;;;;;;5024022;28;20504;-66
2022/04/01 03:37:05;;;;;;;3.65;1.20;;;0.80;99.90;;;;;;5005170;28;20151;-66
2022/04/01 03:39:32;;;;;;;3.38;1.50;;;0.80;99.90;;;;;;5024302;28;20041;-66
2022/04/01 03:41:58;;;;;;;3.60;1.35;;;0.80;99.90;;;;;;5002991;28;20689;-66
2022/04/01 03:44:25;;;;;;;2.80;1.40;;;0.80;99.90;;;;;;5006212;28;20099;-66
2022/04/01 03:47:07;;;;;;;1.92;0.95;;;0.90;99.90;;;;;;5025966;28;20048;-66
2022/04/01 03:49:33;;;;;;;2.97;1.00;;;0.90;99.90;;;;;;4997549;28;20090;-66
2022/04/01 03:52:01;;;;;;;2.17;1.30;;;1.00;99.90;;;;;;5007051;28;20485;-66
2022/04/01 03:54:28;;;;;;;3.08;1.50;;;1.00;99.90;;;;;;5028835;28;20051;-66
2022/04/01 03:57:01;;;;;;;2.20;1.10;;;1.00;99.90;;;;;;5024738;28;20929;-66
2022/04/01 03:59:40;;;;;;;2.80;1.25;;;1.10;99.90;;;;;;5009077;28;20499;-66
2022/04/01 04:02:10;;;;;;;2.85;0.88;;;1.10;99.90;;;;;;5006717;28;20041;-66
2022/04/01 04:04:38;;;;;;;3.65;1.63;;;1.10;99.90;;;;;;5024874;28;20397;-66
2022/04/01 04:07:07;;;;;;;2.13;1.13;;;1.10;99.90;;;;;;5009418;28;20053;-65
2022/04/01 04:09:37;;;;;;;4.15;1.50;;;1.10;99.90;;;;;;5024280;28;20037;-66
2022/04/01 04:12:05;;;;;;;2.05;1.13;;;1.20;99.90;;;;;;5009400;28;20053;-66
2022/04/01 04:14:32;;;;;;;2.30;1.25;;;1.20;99.90;;;;;;5008051;28;20041;-67
2022/04/01 04:17:08;;;;;;;3.67;1.40;;;1.20;99.90;;;;;;5025171;28;20461;-66
2022/04/01 04:20:07;;;;;;;3.10;1.63;;;1.20;99.90;;;;;;5027620;28;20578;-66
2022/04/01 04:23:01;;;;;;;3.30;1.38;;;1.30;99.90;;;;;;5026628;28;20033;-66
2022/04/01 04:25:36;;;;;;;3.10;1.17;;;1.30;99.90;;;;;;4989733;28;20061;-66
2022/04/01 04:28:10;;;;;;;3.15;1.17;;;1.20;99.90;;;;;;5022655;28;20049;-65
2022/04/01 04:30:47;;;;;;;2.67;1.13;;;1.30;99.90;;;;;;5023671;28;20391;-66
2022/04/01 04:33:16;;;;;;;2.05;0.77;;;1.30;99.90;;;;;;5003829;28;20033;-66
2022/04/01 04:35:44;;;;;;;3.78;1.00;;;1.30;99.90;;;;;;5023363;28;20048;-66
2022/04/01 04:38:12;;;;;;;2.25;1.02;;;1.40;99.90;;;;;;5004704;28;20036;-66
2022/04/01 04:40:41;;;;;;;4.13;1.23;;;1.40;99.90;;;;;;5024771;28;20129;-66
2022/04/01 04:43:07;;;;;;;3.13;1.20;;;1.30;99.90;;;;;;5028202;28;20045;-66
2022/04/01 04:45:34;;;;;;;1.38;0.95;;;1.30;99.90;;;;;;5022362;28;20099;-66
2022/04/01 04:48:03;;;;;;;5.43;1.00;;;1.40;99.90;;;;;;5010125;28;20052;-66
2022/04/01 04:50:29;;;;;;;3.38;1.10;;;1.30;99.90;;;;;;5025654;28;20053;-66
2022/04/01 04:52:56;;;;;;;3.95;1.65;;;1.30;99.90;;;;;;5025445;28;20038;-66
2022/04/01 04:55:23;;;;;;;4.45;1.10;;;1.30;99.90;;;;;;5023891;28;20073;-66
2022/04/01 04:57:50;;;;;;;3.50;1.30;;;1.40;99.90;;;;;;5027959;28;20045;-66
2022/04/01 05:00:20;;;;;;;4.57;1.05;;;1.30;99.90;;;;;;5026441;28;20164;-66
2022/04/01 05:03:23;;;;;;;2.45;1.30;;;1.30;99.90;;;;;;4988892;28;20042;-66
2022/04/01 05:05:56;;;;;;;1.95;0.77;;;1.30;99.90;;;;;;5003959;28;20061;-66
2022/04/01 05:08:50;;;;;;;4.30;1.02;;;1.40;99.90;;;;;;5021481;28;20104;-66
2022/04/01 05:11:57;;;;;;;5.03;0.90;;;1.40;99.90;;;;;;5025846;28;20116;-66
2022/04/01 05:14:52;;;;;;;3.05;0.93;;;1.40;99.90;;;;;;4993334;28;20121;-66
2022/04/01 05:17:27;;;;;;;1.20;0.90;;;1.40;99.90;;;;;;5007092;28;20558;-66
2022/04/01 05:19:57;;;;;;;2.95;0.90;;;1.40;99.90;;;;;;5023154;28;20545;-65
2022/04/01 05:22:36;;;;;;;1.35;0.70;;;1.40;99.90;;;;;;5021548;28;20120;-65
2022/04/01 05:25:04;;;;;;;1.60;0.57;;;1.50;99.90;;;;;;5020361;28;20049;-66
2022/04/01 05:27:37;;;;;;;1.95;0.68;;;1.50;99.90;;;;;;5005162;28;20104;-66
2022/04/01 05:30:18;;;;;;;4.70;1.00;;;1.50;99.90;;;;;;5021783;28;20136;-66
2022/04/01 05:33:06;;;;;;;4.45;1.02;;;1.50;99.90;;;;;;5020723;28;20095;-66
2022/04/01 05:35:38;;;;;;;3.95;0.80;;;1.60;99.90;;;;;;5021152;28;20068;-66
2022/04/01 05:38:07;;;;;;;2.17;0.77;;;1.60;99.90;;;;;;5025542;28;20116;-66
2022/04/01 05:40:34;;;;;;;4.50;0.80;;;1.60;99.90;;;;;;5001614;28;20076;-67
2022/04/01 05:43:01;;;;;;;2.67;0.80;;;1.60;99.90;;;;;;5004146;28;20049;-64
2022/04/01 05:45:29;;;;;;;2.25;0.73;;;1.60;99.90;;;;;;5003659;28;20148;-65
2022/04/01 05:47:57;;;;;;;2.78;0.88;;;1.70;99.90;;;;;;4992562;28;20046;-66
2022/04/01 05:50:25;;;;;;;4.47;0.65;;;1.70;99.90;;;;;;5007832;28;20081;-66
2022/04/01 05:52:52;;;;;;;5.35;0.90;;;1.70;99.90;;;;;;5011487;28;20064;-66
2022/04/01 05:55:26;;;;;;;2.30;0.73;;;1.70;99.90;;;;;;5024991;28;20378;-65
2022/04/01 05:57:53;;;;;;;2.92;0.82;;;1.70;99.90;;;;;;5006280;28;20076;-67
2022/04/01 06:00:19;;;;;;;3.58;0.70;;;1.70;99.90;;;;;;5027733;28;20111;-66
2022/04/01 06:02:57;;;;;;;3.17;0.75;;;1.80;99.90;;;;;;5027286;28;20042;-66
2022/04/01 06:05:46;;;;;;;2.83;0.77;;;1.80;99.90;;;;;;5009677;28;20057;-66
2022/04/01 06:08:23;;;;;;;4.32;0.80;;;1.80;99.90;;;;;;5022897;28;20030;-66
2022/04/01 06:11:26;;;;;;;4.35;1.20;;;1.80;99.90;;;;;;5024786;28;20049;-66
2022/04/01 06:14:17;;;;;;;2.63;0.52;;;1.90;99.90;;;;;;5004311;28;20152;-65
2022/04/01 06:16:48;;;;;;;2.17;0.80;;;1.90;99.90;;;;;;4988519;28;20046;-66
2022/04/01 06:19:29;;;;;;;4.10;0.70;;;1.90;99.90;;;;;;5014631;28;20103;-67
2022/04/01 06:22:03;;;;;;;2.10;0.55;;;2.00;99.90;;;;;;5005131;28;20049;-67
2022/04/01 06:24:56;;;;;;;3.40;0.77;;;2.00;99.90;;;;;;5020616;28;20050;-67
2022/04/01 06:27:29;;;;;;;1.63;0.73;;;2.00;99.90;;;;;;5021591;28;20038;-71
2022/04/01 06:30:09;;;;;;;4.68;1.02;;;2.10;99.90;;;;;;5004294;28;20056;-68
2022/04/01 06:32:50;;;;;;;2.65;0.80;;;2.10;99.90;;;;;;5001882;28;20037;-66
2022/04/01 06:35:27;;;;;;;2.42;0.80;;;2.20;99.90;;;;;;5016809;28;20161;-66
2022/04/01 06:38:05;;;;;;;2.47;0.80;;;2.20;99.90;;;;;;5023582;28;20045;-65
2022/04/01 06:40:42;;;;;;;5.18;0.50;;;2.20;99.90;;;;;;5020829;28;20049;-66
2022/04/01 06:43:08;;;;;;;3.72;0.70;;;2.30;99.90;;;;;;5023689;28;20041;-66
2022/04/01 06:45:34;;;;;;;3.55;0.90;;;2.40;99.90;;;;;;5021868;28;20782;-66
2022/04/01 06:48:00;;;;;;;4.15;0.93;;;2.40;99.90;;;;;;5022505;28;20044;-66
2022/04/01 06:50:25;;;;;;;4.18;1.05;;;2.40;99.90;;;;;;5021984;28;20037;-66
2022/04/01 06:52:52;;;;;;;3.42;0.65;;;2.40;99.90;;;;;;5025283;28;20029;-66
2022/04/01 06:55:18;;;;;;;2.45;0.90;;;2.40;99.90;;;;;;5006280;28;20100;-66
2022/04/01 06:57:44;;;;;;;5.85;1.45;;;2.50;99.90;;;;;;5022900;28;20524;-68
2022/04/01 07:00:13;;;;;;;1.63;0.80;;;2.40;99.90;;;;;;5026271;28;20397;-66
2022/04/01 07:02:40;;;;;;;2.22;0.60;;;2.50;99.90;;;;;;5027222;28;20037;-66
2022/04/01 07:05:06;;;;;;;2.50;0.77;;;2.50;99.90;;;;;;5009716;28;20041;-66
2022/04/01 07:07:32;;;;;;;4.20;1.05;;;2.50;99.90;;;;;;5002092;28;20062;-66
2022/04/01 07:09:57;;;;;;;2.33;0.88;;;2.60;99.90;;;;;;5012056;28;20041;-67
2022/04/01 07:12:23;;;;;;;3.00;0.80;;;2.60;99.90;;;;;;5026457;28;20041;-67
2022/04/01 07:14:50;;;;;;;2.55;0.73;;;2.60;99.90;;;;;;5026679;28;20049;-67
2022/04/01 07:17:16;;;;;;;7.47;3.05;;;2.70;99.90;;;;;;5006917;28;20184;-67
2022/04/01 07:19:41;;;;;;;4.07;0.77;;;2.80;99.90;;;;;;5010470;28;20132;-67
2022/04/01 07:22:07;;;;;;;4.05;0.80;;;2.90;99.90;;;;;;5001071;28;20552;-66
2022/04/01 07:24:33;;;;;;;3.50;0.90;;;2.80;99.90;;;;;;5007643;28;20080;-72
2022/04/01 07:27:00;;;;;;;3.67;0.70;;;2.80;99.90;;;;;;5003994;28;20408;-71
2022/04/01 07:29:27;;;;;;;3.80;0.88;;;2.80;99.90;;;;;;5009676;28;20049;-65
2022/04/01 07:34:42;;;;;;;5.05;1.00;;;2.80;99.90;;;;;;5026518;28;20103;-69
2022/04/01 07:37:08;;;;;;;3.13;0.93;;;2.90;99.90;;;;;;5025076;28;20103;-69
2022/04/01 07:39:34;;;;;;;2.88;0.60;;;2.80;99.90;;;;;;5007748;28;20397;-69
2022/04/01 07:42:01;;;;;;;1.20;0.65;;;2.80;99.90;;;;;;5005738;28;20107;-66
2022/04/01 07:44:27;;;;;;;2.13;0.55;;;2.80;99.90;;;;;;5027453;28;20065;-66
2022/04/01 07:46:53;;;;;;;2.30;0.90;;;2.80;99.90;;;;;;5027051;28;20065;-66
2022/04/01 07:49:19;;;;;;;3.30;0.90;;;2.80;99.80;;;;;;5024678;28;20535;-66
2022/04/01 07:51:46;;;;;;;1.23;0.63;;;2.80;99.90;;;;;;5009079;28;20140;-65
2022/04/01 07:54:13;;;;;;;1.35;0.70;;;2.70;99.90;;;;;;5028865;28;20546;-66
2022/04/01 07:56:40;;;;;;;3.00;1.10;;;2.60;99.90;;;;;;5022771;28;20041;-66
2022/04/01 07:59:11;;;;;;;2.60;0.68;;;2.60;99.90;;;;;;4990219;28;20111;-66
2022/04/01 08:01:36;;;;;;;1.23;0.68;;;2.60;99.90;;;;;;4998896;28;20042;-67
2022/04/01 08:04:03;;;;;;;2.15;0.98;;;2.60;99.90;;;;;;4999529;28;20068;-67
2022/04/01 08:06:30;;;;;;;2.72;1.30;;;2.60;99.90;;;;;;5024826;28;20033;-66
2022/04/01 08:08:58;;;;;;;2.20;1.27;;;2.60;99.90;;;;;;5003536;28;20106;-67
2022/04/01 08:11:27;;;;;;;2.35;0.93;;;2.60;99.90;;;;;;5008546;28;20631;-67
2022/04/01 08:13:56;;;;;;;3.05;1.10;;;2.60;99.90;;;;;;5007358;28;20057;-67
2022/04/01 08:16:22;;;;;;;4.28;1.50;;;2.50;99.90;;;;;;5022529;28;20044;-69
2022/04/01 08:18:49;;;;;;;4.22;1.50;;;2.50;99.90;;;;;;4995752;28;20049;-68
2022/04/01 08:21:15;;;;;;;201.20;124.47;;;2.50;99.90;;;;;;5006547;28;20448;-69
2022/04/01 08:23:41;;;;;;;6.07;1.50;;;2.50;99.90;;;;;;5010750;28;20111;-68
2022/04/01 08:26:07;;;;;;;2.78;1.45;;;2.40;99.90;;;;;;5032467;28;20045;-69
2022/04/01 08:28:33;;;;;;;4.38;1.70;;;2.50;99.90;;;;;;5013241;28;20478;-66
2022/04/01 08:30:59;;;;;;;3.03;1.67;;;2.50;99.90;;;;;;5024372;28;20610;-65
2022/04/01 08:33:25;;;;;;;5.38;1.30;;;2.60;99.90;;;;;;5006956;28;20048;-67
2022/04/01 08:35:51;;;;;;;2.08;1.52;;;2.60;99.90;;;;;;5023661;28;20042;-66
2022/04/01 08:38:17;;;;;;;5.75;2.38;;;2.60;99.90;;;;;;5028364;28;20033;-66
2022/04/01 08:40:43;;;;;;;3.88;2.20;;;2.50;99.70;;;;;;5023109;28;20053;-66
2022/04/01 08:43:09;;;;;;;3.75;2.13;;;2.70;99.70;;;;;;5011323;28;20060;-66
2022/04/01 08:45:39;;;;;;;3.78;2.33;;;2.70;98.60;;;;;;5020106;28;20042;-66
2022/04/01 08:48:09;;;;;;;4.95;2.47;;;2.80;99.10;;;;;;5023615;28;20038;-66
2022/04/01 08:50:35;;;;;;;3.60;2.60;;;2.80;98.10;;;;;;5030475;28;20087;-67
2022/04/01 08:53:01;;;;;;;6.38;2.67;;;2.90;98.90;;;;;;5027682;28;20034;-67
2022/04/01 08:55:27;;;;;;;4.68;3.00;;;2.90;98.70;;;;;;5006431;28;20041;-67
2022/04/01 08:57:52;;;;;;;10.25;3.58;;;3.00;98.60;;;;;;5005781;28;20204;-67
2022/04/01 09:00:18;;;;;;;6.13;3.58;;;3.10;98.30;;;;;;5002678;28;20136;-67
2022/04/01 09:02:51;;;;;;;7.93;3.28;;;3.20;98.60;;;;;;5005028;28;20045;-66
2022/04/01 09:05:19;;;;;;;5.82;3.22;;;3.10;98.30;;;;;;5030931;28;20385;-69
2022/04/01 09:07:46;;;;;;;5.15;2.47;;;3.20;98.00;;;;;;5007438;28;20099;-65
2022/04/01 09:10:12;;;;;;;6.53;2.75;;;3.10;97.90;;;;;;5003851;28;20042;-68
2022/04/01 09:12:49;;;;;;;5.13;2.85;;;3.10;98.90;;;;;;4995070;28;20049;-68
2022/04/01 09:15:15;;;;;;;4.20;2.38;;;3.10;98.70;;;;;;5011739;28;20049;-69
2022/04/01 09:17:43;;;;;;;5.95;3.58;;;2.90;98.60;;;;;;5023003;28;20048;-68
2022/04/01 09:20:10;;;;;;;5.40;3.58;;;2.90;99.10;;;;;;5008925;28;20049;-68
2022/04/01 09:22:37;;;;;;;4.82;3.22;;;2.90;99.80;;;;;;5021693;28;20664;-68
2022/04/01 09:25:06;;;;;;;6.13;3.47;;;2.80;99.80;;;;;;5006413;28;20500;-68
2022/04/01 09:27:42;;;;;;;8.75;4.20;;;2.80;99.90;;;;;;5006864;28;20214;-68
2022/04/01 09:30:22;;;;;;;5.32;3.15;;;2.90;99.90;;;;;;5007461;28;20058;-68
2022/04/01 09:32:55;;;;;;;5.47;3.80;;;2.90;99.90;;;;;;5006301;28;20096;-68
2022/04/01 09:35:23;;;;;;;6.47;3.50;;;3.00;99.90;;;;;;5023701;28;20040;-68
2022/04/01 09:37:58;;;;;;;4.82;3.63;;;2.90;99.90;;;;;;5023345;28;20077;-68
2022/04/01 09:40:25;;;;;;;5.45;3.20;;;2.90;99.90;;;;;;5002237;28;20065;-68
2022/04/01 09:43:00;;;;;;;5.45;3.70;;;2.80;99.90;;;;;;5024298;28;20037;-68
2022/04/01 09:45:32;;;;;;;5.90;4.15;;;2.80;99.90;;;;;;4991047;28;20046;-67
2022/04/01 09:48:00;;;;;;;6.75;4.00;;;2.80;99.90;;;;;;5008224;28;20512;-67
2022/04/01 09:50:36;;;;;;;6.90;4.07;;;2.90;99.90;;;;;;5004530;28;20480;-66
2022/04/01 09:53:13;;;;;;;7.47;3.63;;;3.00;99.90;;;;;;4998231;28;20045;-67
2022/04/01 09:55:41;;;;;;;7.72;4.05;;;3.10;99.90;;;;;;5011184;28;20107;-68
2022/04/01 09:58:09;;;;;;;5.07;3.83;;;3.20;99.90;;;;;;5018493;28;20037;-67
2022/04/01 10:00:37;;;;;;;7.93;4.65;;;3.30;99.90;;;;;;5027249;28;20496;-67
2022/04/01 10:03:05;;;;;;;6.53;4.13;;;3.20;99.90;;;;;;4997723;28;20133;-67
2022/04/01 10:05:31;;;;;;;6.32;4.25;;;3.00;99.90;;;;;;5000726;28;20041;-67
2022/04/01 10:07:57;;;;;;;4.72;3.63;;;2.90;99.90;;;;;;5003492;28;20064;-67
2022/04/01 10:10:27;;;;;;;7.15;4.80;;;2.80;99.90;;;;;;5006326;28;20111;-66
2022/04/01 10:13:00;;;;;;;6.10;4.32;;;2.80;99.90;;;;;;5004038;28;20049;-67
2022/04/01 10:15:29;;;;;;;6.72;4.40;;;2.70;99.90;;;;;;5006556;28;20061;-67
2022/04/01 10:17:57;;;;;;;4.72;3.90;;;2.80;99.90;;;;;;5006123;28;20061;-67
2022/04/01 10:20:31;;;;;;;5.70;4.20;;;2.90;99.90;;;;;;5026989;28;20485;-67
2022/04/01 10:22:57;;;;;;;6.00;4.50;;;2.80;99.90;;;;;;5023222;28;20037;-67
2022/04/01 10:25:30;;;;;;;5.57;4.10;;;2.90;99.90;;;;;;5004215;28;20049;-66
2022/04/01 10:28:01;;;;;;;6.18;4.57;;;3.00;99.90;;;;;;5004133;28;20101;-67
2022/04/01 10:30:27;;;;;;;6.20;4.15;;;3.00;99.90;;;;;;5027061;28;20495;-67
2022/04/01 10:32:53;;;;;;;5.45;4.13;;;3.10;99.90;;;;;;5017799;28;20155;-67
2022/04/01 10:35:25;;;;;;;5.25;3.65;;;3.20;99.90;;;;;;5003502;28;20183;-67
2022/04/01 10:37:55;;;;;;;5.75;3.85;;;3.20;99.80;;;;;;4998681;28;20136;-67
2022/04/01 10:40:22;;;;;;;7.63;4.82;;;3.10;99.90;;;;;;5020487;28;20136;-67
2022/04/01 10:42:50;;;;;;;5.38;4.20;;;3.10;99.90;;;;;;5004703;28;20052;-67
2022/04/01 10:45:16;;;;;;;6.07;4.28;;;3.30;99.90;;;;;;5000954;28;20054;-68
2022/04/01 10:53:46;;;;;;;4.57;2.80;;;4.20;98.10;;;;;;5020628;28;20102;-67
2022/04/01 10:56:23;;;;;;;2.60;1.63;;;4.20;98.60;;;;;;5005853;28;20099;-67
2022/04/01 10:59:07;;;;;;;3.88;1.85;;;4.30;98.10;;;;;;5018171;28;20096;-66
2022/04/01 11:01:36;;;;;;;3.67;2.25;;;4.10;97.70;;;;;;5026436;28;20401;-68
2022/04/01 11:04:08;;;;;;;3.63;2.03;;;4.10;99.10;;;;;;5017470;28;20091;-68
2022/04/01 11:06:49;;;;;;;3.17;2.03;;;4.20;99.90;;;;;;5004292;28;20520;-67
2022/04/01 11:09:33;;;;;;;2.85;1.90;;;4.40;99.90;;;;;;5020140;28;20038;-67
2022/04/01 11:12:21;;;;;;;2.70;1.85;;;4.40;99.90;;;;;;5024116;28;20041;-68
2022/04/01 11:14:59;;;;;;;3.65;2.15;;;4.20;99.90;;;;;;5002659;28;20144;-68
2022/04/01 11:17:34;;;;;;;4.35;1.88;;;4.00;99.90;;;;;;5023967;28;20038;-67
2022/04/01 11:20:18;;;;;;;3.13;2.08;;;3.90;99.90;;;;;;5002611;28;20145;-68
2022/04/01 11:22:46;;;;;;;6.70;2.00;;;3.70;99.90;;;;;;5003581;28;20045;-68
2022/04/01 11:25:31;;;;;;;3.80;1.63;;;3.70;99.90;;;;;;5004406;28;20046;-68
2022/04/01 11:27:56;;;;;;;3.17;1.58;;;3.50;99.90;;;;;;5027428;28;20061;-68
2022/04/01 11:30:28;;;;;;;4.40;1.70;;;3.40;99.90;;;;;;5023145;28;20048;-68
2022/04/01 11:32:57;;;;;;;4.32;2.25;;;3.50;99.90;;;;;;5024966;28;20037;-68
2022/04/01 11:35:25;;;;;;;3.10;1.95;;;3.60;99.90;;;;;;5003505;28;20049;-68
2022/04/01 11:37:51;;;;;;;4.22;1.45;;;3.70;99.90;;;;;;5006872;28;20085;-68
2022/04/01 11:40:21;;;;;;;3.33;1.67;;;3.80;99.90;;;;;;5011994;28;20049;-67
2022/04/01 11:43:10;;;;;;;3.40;1.60;;;3.90;99.90;;;;;;5024905;28;20568;-69
2022/04/01 11:45:54;;;;;;;6.90;2.00;;;3.80;99.90;;;;;;5027151;28;20487;-68
2022/04/01 11:48:33;;;;;;;3.45;1.63;;;3.90;99.90;;;;;;5030245;28;20038;-67
2022/04/01 11:51:24;;;;;;;2.13;1.20;;;3.90;99.90;;;;;;5024759;28;20049;-68
2022/04/01 11:53:56;;;;;;;3.58;1.10;;;3.80;99.90;;;;;;5023791;28;20429;-68
2022/04/01 11:56:25;;;;;;;4.95;1.45;;;3.70;99.90;;;;;;5009211;28;20045;-67
2022/04/01 11:58:52;;;;;;;4.43;1.52;;;3.80;99.90;;;;;;5011560;28;20501;-67
2022/04/01 12:01:19;;;;;;;5.80;2.80;;;3.90;99.90;;;;;;5007104;28;20053;-67
2022/04/01 12:03:45;;;;;;;3.67;1.27;;;3.90;99.90;;;;;;5026333;28;20041;-67
2022/04/01 12:09:04;;;;;;;2.58;0.88;;;3.90;98.60;;;;;;5028537;28;20068;-68
2022/04/01 12:11:37;;;;;;;3.60;0.98;;;3.90;98.10;;;;;;5008468;28;20050;-67
2022/04/01 12:14:03;;;;;;;4.45;1.67;;;4.10;98.10;;;;;;5008392;28;20058;-67
2022/04/01 12:16:29;;;;;;;2.22;1.20;;;4.00;98.40;;;;;;5003114;28;20062;-67
2022/04/01 12:18:57;;;;;;;2.30;0.93;;;3.90;99.40;;;;;;5023190;28;20037;-68
2022/04/01 12:21:24;;;;;;;4.57;1.00;;;4.00;99.70;;;;;;5007940;28;20452;-67
2022/04/01 12:23:51;;;;;;;4.10;1.35;;;4.10;99.60;;;;;;5029515;28;20484;-68
2022/04/01 12:26:19;;;;;;;2.45;1.13;;;4.20;99.20;;;;;;5016030;28;20049;-69
2022/04/01 12:28:49;;;;;;;2.72;1.00;;;4.40;98.70;;;;;;5003086;28;20053;-67
2022/04/01 12:31:26;;;;;;;1.80;0.77;;;4.20;98.00;;;;;;4997674;28;20572;-67
2022/04/01 12:33:57;;;;;;;2.35;0.98;;;4.30;99.20;;;;;;5026719;28;20469;-67
2022/04/01 12:36:36;;;;;;;2.53;1.20;;;4.20;98.40;;;;;;5022103;28;20053;-68
2022/04/01 12:39:07;;;;;;;2.65;1.45;;;4.10;98.80;;;;;;5022647;28;20083;-67
2022/04/01 12:41:34;;;;;;;2.58;1.38;;;3.90;99.20;;;;;;4997467;28;20096;-67
2022/04/01 12:44:13;;;;;;;2.30;1.10;;;4.00;99.90;;;;;;5026528;28;20501;-67
2022/04/01 12:46:39;;;;;;;2.78;1.45;;;4.10;99.90;;;;;;5022296;28;20037;-67
2022/04/01 12:49:13;;;;;;;3.50;1.33;;;4.20;99.90;;;;;;5024126;28;20129;-67
2022/04/01 12:51:47;;;;;;;2.90;1.40;;;4.30;99.90;;;;;;5009502;28;20083;-68
2022/04/01 12:54:23;;;;;;;2.45;1.50;;;4.30;99.90;;;;;;5022082;28;20041;-68
2022/04/01 12:56:51;;;;;;;3.13;1.20;;;4.50;99.90;;;;;;5025410;28;20128;-68
2022/04/01 12:59:18;;;;;;;3.45;2.22;;;4.70;99.80;;;;;;5021091;28;20044;-68
2022/04/01 13:01:54;;;;;;;2.10;1.10;;;4.60;97.90;;;;;;5007120;28;20084;-68
2022/04/01 13:04:21;;;;;;;2.22;1.30;;;4.70;98.50;;;;;;5004707;28;20141;-68
2022/04/01 13:07:07;;;;;;;2.00;0.80;;;4.90;98.70;;;;;;5025031;28;20042;-68
2022/04/01 13:09:45;;;;;;;3.78;1.33;;;4.90;97.00;;;;;;5020317;28;20041;-68
2022/04/01 13:12:11;;;;;;;4.00;1.45;;;4.90;97.20;;;;;;5025540;28;20037;-68
2022/04/01 13:14:37;;;;;;;2.88;1.15;;;5.10;97.90;;;;;;5017536;28;20041;-68
2022/04/01 13:17:10;;;;;;;2.60;1.55;;;5.10;96.60;;;;;;5003151;28;20053;-68
2022/04/01 13:19:37;;;;;;;3.42;1.38;;;5.10;96.90;;;;;;4999232;28;20041;-68
2022/04/01 13:22:07;;;;;;;3.90;1.52;;;5.10;97.10;;;;;;5003647;28;20564;-69
2022/04/01 13:24:47;;;;;;;3.05;1.10;;;5.00;96.50;;;;;;5006512;28;20042;-68
2022/04/01 13:27:16;;;;;;;2.72;1.35;;;5.10;96.20;;;;;;5020736;28;20038;-68
2022/04/01 13:29:43;;;;;;;2.53;1.55;;;4.90;95.60;;;;;;5003132;28;20088;-67